Time;durP1;ratioP1;P1;durP2;ratioP2;P2;SDS_P1;SDS_P2;PMS_P1;PMS_P2;Temp;Humidity;BMP_temperature;BMP_pressure;BME280_temperature;BME280_humidity;BME280_pressure;Samples;Min_cycle;Max_cycle;Signal;HPM_P1;HPM_P2
2022/01/15 00:00:27;;;;;;;1.75;1.02;;;;;;;3.17;59.45;100088.34;126354;1099;104162;-79
2022/01/15 00:03:15;;;;;;;3.47;1.33;;;;;;;3.16;58.86;100082.23;126287;1099;104174;-78
2022/01/15 00:05:46;;;;;;;2.50;1.12;;;;;;;3.14;59.25;100096.82;126305;1099;104229;-78
2022/01/15 00:08:18;;;;;;;5.63;1.47;;;;;;;3.13;59.75;100123.58;126320;1099;104533;-79
2022/01/15 00:10:52;;;;;;;5.47;1.57;;;;;;;3.13;60.15;100107.10;126306;1099;110517;-78
2022/01/15 00:13:27;;;;;;;1.43;1.13;;;;;;;3.10;59.90;100106.92;126362;1099;104248;-78
2022/01/15 00:16:08;;;;;;;5.33;1.33;;;;;;;3.09;59.88;100113.81;126368;1099;104356;-78
2022/01/15 00:18:46;;;;;;;4.83;1.70;;;;;;;3.06;59.87;100106.73;126239;1099;104149;-79
2022/01/15 00:21:18;;;;;;;3.93;1.20;;;;;;;3.06;59.48;100111.92;126349;1099;104188;-79
2022/01/15 00:23:51;;;;;;;3.00;1.47;;;;;;;3.04;60.25;100103.17;126296;1099;104297;-79
2022/01/15 00:26:22;;;;;;;0.97;0.70;;;;;;;3.04;60.35;100104.87;126324;1099;104159;-79
2022/01/15 00:28:56;;;;;;;3.00;1.20;;;;;;;3.02;60.54;100120.34;126279;1099;104604;-79
2022/01/15 00:31:30;;;;;;;4.08;1.35;;;;;;;3.00;60.29;100126.23;126293;1096;104625;-78
2022/01/15 00:34:00;;;;;;;;;;;;;;;2.97;60.35;100128.63;126357;1099;104229;-78
2022/01/15 00:36:32;;;;;;;4.23;1.13;;;;;;;2.95;60.14;100109.52;126286;1098;104155;-78
2022/01/15 00:39:06;;;;;;;3.73;1.13;;;;;;;2.94;60.31;100118.97;126308;1099;104216;-78
2022/01/15 00:41:37;;;;;;;3.40;1.43;;;;;;;2.93;60.18;100144.80;126343;1099;104248;-79
2022/01/15 00:44:09;;;;;;;3.00;1.20;;;;;;;2.94;60.37;100136.23;126287;1099;104252;-79
2022/01/15 00:46:40;;;;;;;2.53;1.20;;;;;;;2.92;60.88;100132.66;126332;1099;104152;-79
2022/01/15 00:49:13;;;;;;;2.70;1.07;;;;;;;2.90;60.25;100144.61;126297;1098;104173;-79
2022/01/15 00:51:46;;;;;;;2.57;1.20;;;;;;;2.87;60.87;100166.95;126289;1099;104153;-78
2022/01/15 00:54:18;;;;;;;8.03;2.03;;;;;;;2.86;60.42;100157.38;126307;1099;104152;-78
2022/01/15 00:56:49;;;;;;;3.47;1.23;;;;;;;2.82;61.00;100142.47;126289;1097;104239;-79
2022/01/15 00:59:22;;;;;;;3.50;1.50;;;;;;;2.79;60.72;100147.46;126310;1099;104153;-79
2022/01/15 01:01:53;;;;;;;3.27;1.57;;;;;;;2.77;60.94;100142.97;126309;1099;104155;-79
2022/01/15 01:04:25;;;;;;;2.70;1.40;;;;;;;2.72;61.17;100166.02;126335;1099;104248;-78
2022/01/15 01:06:56;;;;;;;5.13;1.70;;;;;;;2.70;61.57;100158.14;126325;1099;104290;-78
2022/01/15 01:09:39;;;;;;;4.97;1.70;;;;;;;2.70;61.50;100154.67;126300;1099;104200;-79
2022/01/15 01:12:24;;;;;;;3.23;1.57;;;;;;;2.69;61.30;100163.23;126279;1099;104153;-78
2022/01/15 01:20:49;;;;;;;3.70;1.50;;;;;;;2.60;61.89;100160.07;126332;1099;104217;-78
2022/01/15 01:23:20;;;;;;;6.00;1.57;;;;;;;2.58;61.33;100161.68;126310;1098;104201;-78
2022/01/15 01:25:58;;;;;;;6.80;2.50;;;;;;;2.55;61.65;100183.09;126363;1099;104274;-78
2022/01/15 01:28:34;;;;;;;4.07;1.80;;;;;;;2.53;61.27;100163.09;126374;1099;104144;-78
2022/01/15 01:31:13;;;;;;;3.07;1.50;;;;;;;2.52;61.08;100162.19;126293;1099;105711;-79
2022/01/15 01:33:48;;;;;;;5.73;1.43;;;;;;;2.48;61.64;100192.19;126338;1099;104175;-79
2022/01/15 01:36:34;;;;;;;4.07;2.03;;;;;;;2.44;61.47;100164.30;126298;1099;104275;-79
2022/01/15 01:39:13;;;;;;;4.43;1.60;;;;;;;2.42;62.11;100181.44;126295;1099;104275;-78
2022/01/15 01:41:53;;;;;;;1.43;1.20;;;;;;;2.41;61.47;100176.16;126303;1099;104152;-79
2022/01/15 01:44:28;;;;;;;6.80;1.97;;;;;;;2.40;61.89;100157.16;126282;1099;104172;-79
2022/01/15 01:47:05;;;;;;;3.60;1.73;;;;;;;2.37;62.15;100175.09;126359;1099;104146;-78
2022/01/15 01:49:38;;;;;;;4.73;1.33;;;;;;;2.34;61.36;100180.08;126364;1099;104166;-79
2022/01/15 01:52:10;;;;;;;4.50;1.85;;;;;;;2.34;61.65;100170.59;126298;1098;104159;-79
2022/01/15 01:54:42;;;;;;;4.43;1.80;;;;;;;2.31;61.53;100161.75;126287;1099;104213;-79
2022/01/15 01:57:14;;;;;;;4.40;1.63;;;;;;;2.31;61.32;100192.83;126370;1099;104172;-79
2022/01/15 01:59:45;;;;;;;2.10;1.35;;;;;;;2.30;61.46;100167.72;126347;1098;104159;-79
2022/01/15 02:02:19;;;;;;;3.90;1.70;;;;;;;2.30;61.38;100166.02;126294;1099;104278;-79
2022/01/15 02:04:52;;;;;;;4.37;1.53;;;;;;;2.30;61.68;100165.13;126375;1099;104261;-79
2022/01/15 02:07:23;;;;;;;5.30;1.97;;;;;;;2.28;61.02;100165.03;126249;1099;104140;-79
2022/01/15 02:09:57;;;;;;;5.77;2.40;;;;;;;2.27;61.14;100170.11;126318;1098;104153;-79
2022/01/15 02:12:31;;;;;;;4.63;1.73;;;;;;;2.25;60.90;100175.19;126266;1099;104666;-78
2022/01/15 02:15:12;;;;;;;5.60;1.87;;;;;;;2.25;61.25;100195.02;126296;1099;104146;-79
2022/01/15 02:17:45;;;;;;;4.87;1.70;;;;;;;2.24;60.97;100195.81;126329;1099;104248;-78
2022/01/15 02:21:00;;;;;;;5.17;2.00;;;;;;;2.27;60.52;100211.54;126325;1099;104188;-78
2022/01/15 02:23:35;;;;;;;4.70;1.70;;;;;;;2.27;60.80;100194.30;126272;1099;102066;-78
2022/01/15 02:26:10;;;;;;;5.20;1.83;;;;;;;2.26;60.50;100196.79;126372;1099;104399;-79
2022/01/15 02:28:43;;;;;;;5.83;1.90;;;;;;;2.26;60.56;100189.94;125297;1099;104280;-79
2022/01/15 02:31:19;;;;;;;3.40;1.60;;;;;;;2.25;60.79;100210.55;125298;1099;104203;-78
2022/01/15 02:33:53;;;;;;;3.47;1.60;;;;;;;2.26;60.70;100220.09;126053;1099;111705;-79
2022/01/15 02:36:26;;;;;;;5.00;2.17;;;;;;;2.28;61.27;100213.34;126242;1099;104344;-79
2022/01/15 02:38:58;;;;;;;6.35;1.75;;;;;;;2.26;60.78;100210.66;126204;1098;104240;-79
2022/01/15 02:41:32;;;;;;;5.97;1.97;;;;;;;2.25;60.26;100202.78;126182;1099;104386;-79
2022/01/15 02:44:09;;;;;;;9.47;2.10;;;;;;;2.22;60.74;100198.30;125192;1099;104200;-78
2022/01/15 02:49:27;;;;;;;4.87;1.73;;;;;;;2.22;60.54;100207.77;125274;1099;104165;-78
2022/01/15 02:52:00;;;;;;;6.90;2.03;;;;;;;2.22;60.38;100189.64;125329;1099;104326;-79
2022/01/15 02:54:32;;;;;;;5.28;1.98;;;;;;;2.21;60.70;100212.03;126153;1099;106991;-78
2022/01/15 02:57:06;;;;;;;4.43;1.87;;;;;;;2.21;60.93;100221.50;125420;1099;104153;-78
2022/01/15 02:59:36;;;;;;;;;;;;;;;2.19;60.21;100230.87;126194;1099;104408;-79
2022/01/15 03:02:07;;;;;;;6.87;1.90;;;;;;;2.18;60.68;100216.13;125317;1099;104236;-78
2022/01/15 03:04:39;;;;;;;7.10;1.87;;;;;;;2.18;60.59;100217.00;125259;1099;104482;-79
2022/01/15 03:07:11;;;;;;;6.40;2.13;;;;;;;2.14;60.76;100226.28;125760;1099;104228;-78
2022/01/15 03:09:43;;;;;;;7.03;1.80;;;;;;;2.12;60.64;100227.88;126360;1099;105111;-79
2022/01/15 03:12:15;;;;;;;8.73;2.47;;;;;;;2.14;60.90;100235.75;126327;1099;104255;-78
2022/01/15 03:14:48;;;;;;;7.43;1.90;;;;;;;2.13;60.16;100242.59;126268;1099;104156;-79
2022/01/15 03:17:19;;;;;;;8.73;2.40;;;;;;;2.15;61.01;100242.70;126350;1099;104249;-78
2022/01/15 03:19:51;;;;;;;7.00;2.40;;;;;;;2.18;60.64;100242.01;126346;1099;104268;-78
2022/01/15 03:22:24;;;;;;;5.60;2.07;;;;;;;2.19;61.04;100248.99;126308;1099;104140;-78
2022/01/15 03:24:55;;;;;;;8.47;2.37;;;;;;;2.20;60.53;100254.27;126290;1099;104152;-78
2022/01/15 03:27:26;;;;;;;6.17;2.23;;;;;;;2.23;60.80;100243.20;126377;1099;104223;-78
2022/01/15 03:30:00;;;;;;;9.23;2.17;;;;;;;2.24;61.00;100250.17;126168;1099;104150;-79
2022/01/15 03:32:34;;;;;;;5.97;1.67;;;;;;;2.24;61.01;100232.94;126156;1099;104175;-79
2022/01/15 03:35:04;;;;;;;;;;;;;;;2.26;60.29;100225.27;126240;1099;105335;-79
2022/01/15 03:37:35;;;;;;;8.47;1.93;;;;;;;2.25;60.87;100245.09;126197;1099;104284;-78
2022/01/15 03:40:09;;;;;;;6.30;2.47;;;;;;;2.26;60.31;100256.34;126197;1099;104166;-79
2022/01/15 03:42:40;;;;;;;8.08;2.25;;;;;;;2.24;60.96;100256.23;126209;1099;104207;-79
2022/01/15 03:45:14;;;;;;;9.00;2.40;;;;;;;2.24;60.69;100248.47;126250;1099;104261;-78
2022/01/15 03:47:47;;;;;;;10.73;2.30;;;;;;;2.24;60.20;100264.00;126350;1099;104143;-78
2022/01/15 03:50:20;;;;;;;4.93;1.60;;;;;;;2.25;60.64;100251.98;126326;1099;104319;-78
2022/01/15 03:52:52;;;;;;;9.37;2.13;;;;;;;2.24;60.06;100258.83;126349;1099;104271;-78
2022/01/15 03:55:25;;;;;;;8.27;2.13;;;;;;;2.15;60.74;100250.46;126252;1099;104335;-78
2022/01/15 03:57:57;;;;;;;6.33;2.20;;;;;;;2.24;61.02;100258.83;126351;1099;104245;-78
2022/01/15 04:00:29;;;;;;;8.23;2.13;;;;;;;2.25;60.95;100260.63;126347;1099;104168;-78
2022/01/15 04:03:03;;;;;;;8.27;2.47;;;;;;;2.27;60.68;100274.56;126336;1099;104175;-78
2022/01/15 04:05:36;;;;;;;5.87;1.77;;;;;;;2.26;60.86;100267.61;126234;1099;104302;-78
2022/01/15 04:08:08;;;;;;;7.30;2.13;;;;;;;2.28;60.83;100263.42;126326;1099;104297;-78
2022/01/15 04:10:40;;;;;;;4.60;2.13;;;;;;;2.31;61.35;100267.91;126352;1099;104197;-78
2022/01/15 04:13:15;;;;;;;7.87;2.10;;;;;;;2.32;60.83;100272.27;126323;1099;104172;-79
2022/01/15 04:15:51;;;;;;;7.70;2.30;;;;;;;2.33;60.40;100266.31;126282;1099;104146;-78
2022/01/15 04:18:25;;;;;;;10.57;2.73;;;;;;;2.35;60.77;100280.23;126337;1099;104243;-78
2022/01/15 04:20:56;;;;;;;;;;;;;;;2.35;60.67;100277.66;126444;1099;104252;-79
2022/01/15 04:23:28;;;;;;;6.43;2.20;;;;;;;2.38;60.50;100289.91;126358;1099;104288;-79
2022/01/15 04:25:59;;;;;;;7.60;2.55;;;;;;;2.36;60.18;100286.34;126368;1099;104156;-79
2022/01/15 04:28:32;;;;;;;6.87;2.30;;;;;;;2.37;60.33;100283.84;126352;1098;104226;-79
2022/01/15 04:31:06;;;;;;;4.73;2.40;;;;;;;2.36;60.41;100281.16;126309;1099;104627;-79
2022/01/15 04:33:37;;;;;;;;;;;;;;;2.32;60.29;100293.91;126328;1099;104159;-79
2022/01/15 04:36:15;;;;;;;4.20;2.10;;;;;;;2.30;60.94;100289.41;126257;1099;104143;-79
2022/01/15 04:38:50;;;;;;;8.70;2.70;;;;;;;2.29;60.18;100300.55;126337;1096;104140;-78
2022/01/15 04:41:21;;;;;;;9.57;2.73;;;;;;;2.30;60.16;100302.36;126234;1099;104195;-78
2022/01/15 04:43:53;;;;;;;8.27;2.53;;;;;;;2.28;60.95;100297.08;126345;1099;104243;-78
2022/01/15 04:46:24;;;;;;;8.20;2.53;;;;;;;2.28;60.79;100301.37;126275;1099;104307;-79
2022/01/15 04:48:55;;;;;;;8.20;2.40;;;;;;;2.29;60.82;100297.97;126340;1098;104165;-79
2022/01/15 04:51:27;;;;;;;9.73;2.70;;;;;;;2.30;60.98;100292.00;126337;1099;104208;-79
2022/01/15 04:54:01;;;;;;;7.40;2.30;;;;;;;2.29;60.40;100308.32;126343;1099;104165;-79
2022/01/15 04:56:33;;;;;;;8.37;2.33;;;;;;;2.29;60.21;100293.70;126275;1098;104262;-78
2022/01/15 04:59:06;;;;;;;9.37;2.53;;;;;;;2.29;60.79;100297.97;126278;1099;104150;-78
2022/01/15 05:01:40;;;;;;;7.03;2.23;;;;;;;2.28;60.61;100311.73;126255;1099;104177;-78
2022/01/15 05:04:14;;;;;;;13.32;3.50;;;;;;;2.28;60.19;100303.96;126274;1099;104168;-78
2022/01/15 05:06:46;;;;;;;9.67;2.67;;;;;;;2.29;60.11;100319.60;126303;1099;104181;-78
2022/01/15 05:09:20;;;;;;;6.87;2.50;;;;;;;2.30;60.19;100315.30;126348;1099;104222;-79
2022/01/15 05:12:03;;;;;;;8.23;2.30;;;;;;;2.31;59.95;100323.17;126321;1099;104149;-78
2022/01/15 05:14:34;;;;;;;9.60;2.90;;;;;;;2.33;60.62;100312.91;126283;1099;104445;-79
2022/01/15 05:17:06;;;;;;;8.67;2.87;;;;;;;2.32;60.26;100317.21;126312;1099;104168;-78
2022/01/15 05:19:37;;;;;;;6.70;2.30;;;;;;;2.32;60.43;100330.16;126246;1099;104220;-78
2022/01/15 05:22:09;;;;;;;9.67;2.37;;;;;;;2.32;59.70;100329.23;126126;1099;104169;-78
2022/01/15 05:24:40;;;;;;;8.93;2.50;;;;;;;2.34;60.04;100340.62;126122;1099;104331;-78
2022/01/15 05:27:12;;;;;;;11.43;2.80;;;;;;;2.35;60.13;100339.80;126095;1099;102323;-79
2022/01/15 05:29:44;;;;;;;5.23;2.13;;;;;;;2.36;60.57;100336.42;126053;1099;104258;-79
2022/01/15 05:32:18;;;;;;;10.73;2.70;;;;;;;2.38;60.09;100331.34;126057;1099;104152;-78
2022/01/15 05:34:54;;;;;;;7.93;2.83;;;;;;;2.38;60.10;100368.48;126046;1099;104323;-79
2022/01/15 05:37:28;;;;;;;8.77;2.33;;;;;;;2.39;60.14;100339.22;126107;1099;104188;-79
2022/01/15 05:39:59;;;;;;;8.83;2.90;;;;;;;2.39;60.48;100328.86;126156;1099;104246;-79
2022/01/15 05:42:31;;;;;;;6.03;2.47;;;;;;;2.40;60.25;100328.08;126304;1099;104149;-78
2022/01/15 05:45:12;;;;;;;8.57;2.73;;;;;;;2.39;60.01;100340.92;126290;1099;104236;-78
2022/01/15 05:47:55;;;;;;;8.15;2.65;;;;;;;2.40;60.02;100351.38;126304;1099;104195;-78
2022/01/15 05:50:27;;;;;;;9.90;2.47;;;;;;;2.40;60.10;100351.38;126325;1099;104208;-78
2022/01/15 05:52:58;;;;;;;8.50;2.53;;;;;;;2.40;60.48;100360.82;126261;1099;104278;-78
2022/01/15 05:55:30;;;;;;;6.90;2.50;;;;;;;2.41;59.47;100366.10;126345;1099;104255;-78
2022/01/15 05:58:01;;;;;;;8.60;2.20;;;;;;;2.41;60.12;100360.03;126268;1099;111320;-78
2022/01/15 06:00:34;;;;;;;8.57;2.23;;;;;;;2.40;60.09;100366.00;126334;1099;104188;-78
2022/01/15 06:03:06;;;;;;;6.87;2.47;;;;;;;2.41;59.78;100373.87;126338;1099;104691;-79
2022/01/15 06:05:40;;;;;;;8.10;2.37;;;;;;;2.40;59.77;100390.23;126330;1099;104245;-78
2022/01/15 06:08:13;;;;;;;10.43;2.73;;;;;;;2.40;60.26;100372.09;126273;1099;104248;-78
2022/01/15 06:10:45;;;;;;;10.33;2.73;;;;;;;2.42;59.74;100378.27;126313;1098;104139;-79
2022/01/15 06:13:16;;;;;;;10.83;3.47;;;;;;;2.42;59.99;100380.86;126356;1098;104181;-78
2022/01/15 06:15:47;;;;;;;8.57;2.67;;;;;;;2.44;59.89;100379.25;126361;1099;104361;-78
2022/01/15 06:18:21;;;;;;;10.27;2.90;;;;;;;2.45;60.63;100357.75;126280;1099;104587;-78
2022/01/15 06:20:53;;;;;;;10.57;2.80;;;;;;;2.47;60.37;100381.16;126355;1098;104213;-79
2022/01/15 06:23:24;;;;;;;10.63;2.43;;;;;;;2.47;60.27;100376.87;126324;1099;104153;-79
2022/01/15 06:25:56;;;;;;;11.40;2.87;;;;;;;2.47;59.88;100396.70;126370;1098;104144;-79
2022/01/15 06:28:30;;;;;;;12.77;3.00;;;;;;;2.48;59.51;100367.42;126281;1099;104198;-78
2022/01/15 06:31:02;;;;;;;14.00;3.40;;;;;;;2.48;59.87;100394.21;126332;1099;104255;-78
2022/01/15 06:33:34;;;;;;;11.97;2.87;;;;;;;2.49;59.56;100388.25;126331;1099;104158;-78
2022/01/15 06:36:08;;;;;;;9.63;2.83;;;;;;;2.48;59.86;100389.03;126269;1099;104156;-79
2022/01/15 06:38:40;;;;;;;7.77;2.50;;;;;;;2.50;59.59;100397.80;126296;1099;104165;-79
2022/01/15 06:41:11;;;;;;;9.10;2.47;;;;;;;2.50;59.55;100387.43;126352;1099;104184;-78
2022/01/15 06:43:45;;;;;;;11.90;3.03;;;;;;;2.53;59.63;100410.06;126295;1097;104261;-78
2022/01/15 06:46:17;;;;;;;8.60;2.70;;;;;;;2.57;60.19;100400.79;126115;1099;104329;-79
2022/01/15 06:48:48;;;;;;;9.93;2.80;;;;;;;2.60;59.50;100416.53;126022;1099;104188;-79
2022/01/15 06:51:24;;;;;;;12.40;2.73;;;;;;;2.61;59.73;100414.05;126189;1099;104252;-79
2022/01/15 06:53:55;;;;;;;9.37;2.50;;;;;;;2.64;59.93;100426.31;126267;1099;104297;-78
2022/01/15 06:56:27;;;;;;;12.40;3.17;;;;;;;2.67;59.83;100426.52;126242;1099;104592;-79
2022/01/15 06:58:59;;;;;;;11.07;3.00;;;;;;;2.68;58.89;100423.11;126276;1099;104160;-79
2022/01/15 07:01:30;;;;;;;7.63;2.63;;;;;;;2.70;59.47;100445.74;126339;1097;104204;-79
2022/01/15 07:04:05;;;;;;;10.90;3.17;;;;;;;2.72;59.41;100440.66;126335;1099;104163;-79
2022/01/15 07:06:36;;;;;;;12.25;2.80;;;;;;;2.77;59.16;100422.83;126349;1099;104256;-79
2022/01/15 07:09:07;;;;;;;8.70;2.50;;;;;;;2.78;59.46;100445.36;126343;1099;104601;-79
2022/01/15 07:11:39;;;;;;;10.07;2.70;;;;;;;2.79;58.39;100440.28;126329;1099;104149;-79
2022/01/15 07:14:15;;;;;;;9.00;2.57;;;;;;;2.83;59.15;100462.98;126278;1098;104150;-80
2022/01/15 07:16:48;;;;;;;10.10;2.80;;;;;;;2.86;59.66;100454.53;126237;1099;104162;-79
2022/01/15 07:19:22;;;;;;;8.47;2.90;;;;;;;2.88;58.86;100465.89;126211;1099;104191;-80
2022/01/15 07:21:52;;;;;;;;;;;;;;;2.88;59.02;100455.52;126171;1099;104197;-78
2022/01/15 07:24:24;;;;;;;13.33;3.20;;;;;;;2.92;58.47;100456.64;126223;1097;104201;-78
2022/01/15 07:26:56;;;;;;;8.17;2.80;;;;;;;2.95;58.90;100468.09;126247;1099;104146;-78
2022/01/15 07:29:30;;;;;;;6.90;2.63;;;;;;;2.99;58.68;100451.04;126184;1099;104149;-78
2022/01/15 07:32:00;;;;;;;;;;;;;;;3.01;59.14;100445.17;126326;1099;104194;-78
2022/01/15 07:34:35;;;;;;;10.00;2.73;;;;;;;3.02;58.09;100443.46;126325;1099;104425;-78
2022/01/15 07:37:06;;;;;;;10.27;2.80;;;;;;;3.04;59.01;100445.37;126313;1099;104252;-79
2022/01/15 07:39:38;;;;;;;8.57;3.07;;;;;;;3.09;58.74;100455.15;126240;1099;104287;-79
2022/01/15 07:42:11;;;;;;;9.77;2.80;;;;;;;3.08;58.61;100454.23;126371;1099;104152;-78
2022/01/15 07:44:42;;;;;;;13.50;3.53;;;;;;;3.13;58.53;100447.67;126314;1099;104146;-78
2022/01/15 07:47:14;;;;;;;8.90;2.83;;;;;;;3.15;58.28;100484.95;126308;1099;104271;-78
2022/01/15 07:49:45;;;;;;;9.00;2.80;;;;;;;3.16;58.08;100484.14;125450;1099;104726;-78
2022/01/15 07:52:19;;;;;;;9.03;2.70;;;;;;;3.22;58.18;100479.34;125263;1099;104309;-78
2022/01/15 07:54:50;;;;;;;6.78;2.62;;;;;;;3.23;57.91;100470.78;125307;1099;104188;-78
2022/01/15 07:57:21;;;;;;;12.13;2.90;;;;;;;3.27;57.95;100481.36;125305;1099;104297;-79
2022/01/15 07:59:53;;;;;;;10.37;2.80;;;;;;;3.28;57.58;100489.23;125890;1099;104236;-79
2022/01/15 08:02:25;;;;;;;10.50;3.00;;;;;;;3.30;57.83;100491.92;126267;1099;104255;-79
2022/01/15 08:04:56;;;;;;;13.63;3.63;;;;;;;3.32;58.29;100487.72;126213;1099;104876;-79
2022/01/15 08:07:28;;;;;;;12.17;3.43;;;;;;;3.33;58.01;100487.83;126270;1099;104152;-79
2022/01/15 08:10:00;;;;;;;8.30;3.70;;;;;;;3.34;57.49;100487.03;125554;1099;104600;-79
2022/01/15 08:12:32;;;;;;;11.57;3.43;;;;;;;3.31;57.67;100505.00;125295;1102;104669;-79
2022/01/15 08:15:04;;;;;;;9.90;3.07;;;;;;;3.30;57.67;100510.97;125327;1099;104217;-80
2022/01/15 08:17:36;;;;;;;11.63;3.47;;;;;;;3.29;57.37;100519.57;125271;1102;104291;-79
2022/01/15 08:20:09;;;;;;;11.13;3.50;;;;;;;3.26;58.08;100508.08;125850;1099;104341;-79
2022/01/15 08:22:45;;;;;;;12.07;3.60;;;;;;;3.28;57.95;100511.69;126191;1099;104197;-79
2022/01/15 08:25:17;;;;;;;15.13;4.33;;;;;;;3.27;57.41;100507.29;126319;1097;104360;-79
2022/01/15 08:27:52;;;;;;;11.17;3.23;;;;;;;3.22;58.04;100523.44;126371;1099;104137;-79
2022/01/15 08:30:26;;;;;;;11.73;3.60;;;;;;;3.21;58.07;100506.10;126222;1099;104246;-79
2022/01/15 08:33:00;;;;;;;9.10;3.08;;;;;;;3.20;57.65;100522.45;126274;1099;104191;-78
2022/01/15 08:35:33;;;;;;;14.45;3.70;;;;;;;3.18;58.03;100543.88;126216;1099;104198;-78
2022/01/15 08:38:08;;;;;;;11.30;3.00;;;;;;;3.17;57.81;100496.31;126246;1099;104168;-77
2022/01/15 08:40:39;;;;;;;13.70;3.87;;;;;;;3.16;57.83;100516.96;126143;1099;104178;-78
2022/01/15 08:43:12;;;;;;;14.57;3.80;;;;;;;3.16;58.49;100507.47;126318;1099;104226;-78
2022/01/15 08:45:46;;;;;;;14.13;3.97;;;;;;;3.18;58.38;100526.64;126354;1098;104242;-78
2022/01/15 08:48:19;;;;;;;;;;;;;;;3.15;57.80;100508.30;126342;1099;104631;-79
2022/01/15 08:50:52;;;;;;;13.53;3.77;;;;;;;3.16;58.36;100532.52;126190;1099;104278;-79
2022/01/15 08:53:24;;;;;;;11.70;3.30;;;;;;;3.17;58.55;100542.99;126183;1099;104165;-80
2022/01/15 08:55:55;;;;;;;13.43;3.60;;;;;;;3.17;58.58;100527.43;126190;1099;104172;-79
2022/01/15 08:58:27;;;;;;;13.37;3.80;;;;;;;3.21;58.62;100526.84;126138;1099;104194;-79
2022/01/15 09:01:00;;;;;;;9.93;3.43;;;;;;;3.28;58.65;100524.66;126133;1099;104149;-79
2022/01/15 09:03:35;;;;;;;10.47;3.63;;;;;;;3.30;58.40;100523.94;126231;1099;104659;-79
2022/01/15 09:06:06;;;;;;;11.50;4.13;;;;;;;3.32;57.81;100524.03;126335;1099;104198;-79
2022/01/15 09:08:42;;;;;;;14.77;3.63;;;;;;;3.36;57.81;100520.86;126209;1099;104188;-79
2022/01/15 09:11:14;;;;;;;17.77;3.93;;;;;;;3.39;57.90;100563.45;126299;1099;104252;-78
2022/01/15 09:13:45;;;;;;;13.87;3.50;;;;;;;3.40;57.50;100541.91;126274;1099;104255;-78
2022/01/15 09:16:17;;;;;;;13.30;3.73;;;;;;;3.41;57.87;100541.12;126080;1099;104204;-79
2022/01/15 09:18:48;;;;;;;11.07;3.67;;;;;;;3.43;58.11;100541.22;126099;1099;104153;-79
2022/01/15 09:21:21;;;;;;;9.27;3.13;;;;;;;3.45;58.26;100541.32;126093;1099;104281;-79
2022/01/15 09:23:55;;;;;;;13.77;3.83;;;;;;;3.46;57.74;100550.88;126074;1099;104146;-79
2022/01/15 09:26:47;;;;;;;11.97;3.70;;;;;;;3.46;58.36;100546.61;126115;1099;104159;-79
2022/01/15 09:32:17;;;;;;;14.83;3.57;;;;;;;3.44;57.20;100534.32;126256;1099;104233;-79
2022/01/15 09:34:48;;;;;;;14.65;4.08;;;;;;;3.42;57.30;100555.86;126262;1099;104216;-78
2022/01/15 09:37:20;;;;;;;15.00;3.70;;;;;;;3.43;57.11;100546.41;126331;1099;104155;-79
2022/01/15 09:39:51;;;;;;;13.77;3.80;;;;;;;3.44;57.31;100530.02;126314;1099;104179;-79
2022/01/15 09:42:26;;;;;;;12.60;4.00;;;;;;;3.47;56.90;100547.49;126247;1099;104248;-79
2022/01/15 09:44:58;;;;;;;15.53;3.87;;;;;;;3.46;56.89;100553.47;126340;1099;104599;-79
2022/01/15 09:47:32;;;;;;;14.17;4.23;;;;;;;3.52;57.26;100536.63;126289;1099;104413;-79
2022/01/15 09:50:04;;;;;;;;;;;;;;;3.54;57.10;100540.20;126396;1099;104188;-79
2022/01/15 09:52:36;;;;;;;10.60;4.03;;;;;;;3.58;57.11;100537.02;126309;1099;104175;-79
2022/01/15 09:55:11;;;;;;;11.70;4.07;;;;;;;3.60;57.53;100557.88;126309;1099;104155;-79
2022/01/15 09:57:44;;;;;;;13.33;3.67;;;;;;;3.56;57.24;100530.81;126275;1099;104179;-78
2022/01/15 10:00:22;;;;;;;15.53;4.53;;;;;;;3.60;56.77;100531.93;126256;1099;104198;-79
2022/01/15 10:02:54;;;;;;;10.43;3.50;;;;;;;3.54;57.20;100552.30;126386;1099;104160;-79
2022/01/15 10:05:27;;;;;;;10.70;4.00;;;;;;;3.51;57.42;100532.22;126240;1099;104158;-79
2022/01/15 10:08:02;;;;;;;12.93;3.73;;;;;;;3.47;57.15;100553.56;126323;1098;104279;-79
2022/01/15 10:10:36;;;;;;;13.07;3.80;;;;;;;3.47;57.13;100545.78;126352;1099;104169;-79
2022/01/15 10:13:18;;;;;;;11.90;3.70;;;;;;;3.41;57.52;100543.72;126218;1099;111853;-79
2022/01/15 10:16:10;;;;;;;13.70;3.87;;;;;;;3.37;57.34;100525.25;126261;1099;104150;-79
2022/01/15 10:18:47;;;;;;;15.23;4.30;;;;;;;3.31;57.01;100558.58;126327;1099;104373;-78
2022/01/15 10:21:22;;;;;;;10.20;4.13;;;;;;;3.30;57.75;100536.02;126294;1099;104268;-78
2022/01/15 10:23:56;;;;;;;12.87;4.23;;;;;;;3.32;57.16;100529.22;126295;1099;104143;-79
2022/01/15 10:26:31;;;;;;;10.98;4.30;;;;;;;3.37;57.46;100548.59;126295;1099;104252;-79
2022/01/15 10:29:10;;;;;;;10.83;3.87;;;;;;;3.39;57.11;100537.50;126293;1099;104144;-79
2022/01/15 10:31:53;;;;;;;13.53;3.77;;;;;;;3.40;56.57;100528.05;126276;1099;102024;-78
2022/01/15 10:34:55;;;;;;;13.50;3.80;;;;;;;3.47;56.85;100544.90;126282;1099;104598;-79
2022/01/15 10:37:36;;;;;;;15.43;4.00;;;;;;;3.53;57.31;100534.92;125313;1101;104169;-79
2022/01/15 10:40:12;;;;;;;15.17;3.83;;;;;;;3.59;56.56;100540.50;126243;1099;104249;-79
2022/01/15 10:42:50;;;;;;;12.43;3.83;;;;;;;3.59;57.04;100541.39;126261;1099;104210;-78
2022/01/15 10:45:23;;;;;;;14.03;3.83;;;;;;;3.64;56.17;100544.28;126302;1099;104300;-78
2022/01/15 10:47:57;;;;;;;11.37;3.70;;;;;;;3.64;56.42;100533.90;126305;1099;104265;-79
2022/01/15 10:50:36;;;;;;;11.60;3.47;;;;;;;3.63;56.68;100544.18;126246;1099;104280;-79
2022/01/15 10:53:11;;;;;;;9.73;3.00;;;;;;;3.60;56.31;100545.79;126290;1099;104149;-79
2022/01/15 10:55:45;;;;;;;14.30;4.23;;;;;;;3.62;56.12;100545.89;126369;1099;104201;-79
2022/01/15 10:58:17;;;;;;;11.30;4.50;;;;;;;3.60;56.79;100543.19;126373;1099;103034;-79
2022/01/15 11:00:51;;;;;;;13.43;3.80;;;;;;;3.60;56.76;100526.74;126327;1099;104220;-79
2022/01/15 11:03:22;;;;;;;;;;;;;;;3.54;55.57;100550.58;125897;1099;104313;-79
2022/01/15 11:05:54;;;;;;;11.67;3.83;;;;;;;3.55;55.92;100547.20;125481;1099;104303;-79
2022/01/15 11:08:26;;;;;;;12.40;3.60;;;;;;;3.53;55.50;100555.67;126195;1099;104168;-79
2022/01/15 11:11:01;;;;;;;10.87;3.47;;;;;;;3.47;56.19;100571.73;126171;1099;104159;-80
2022/01/15 11:13:31;;;;;;;;;;;;;;;3.40;55.31;100560.06;125534;1099;104232;-80
2022/01/15 11:16:05;;;;;;;6.40;3.20;;;;;;;3.40;55.92;100557.47;125279;1099;104174;-77
2022/01/15 11:18:38;;;;;;;8.18;3.10;;;;;;;3.35;56.23;100560.55;125242;1099;104325;-79
2022/01/15 11:21:14;;;;;;;14.00;3.43;;;;;;;3.33;56.34;100546.59;125328;1099;104155;-78
2022/01/15 11:23:47;;;;;;;8.00;3.00;;;;;;;3.33;56.28;100559.56;125805;1099;104261;-78
2022/01/15 11:26:24;;;;;;;7.57;3.00;;;;;;;3.31;56.08;100572.43;125365;1099;104235;-78
2022/01/15 11:28:58;;;;;;;13.20;3.50;;;;;;;3.30;55.97;100583.59;126154;1099;104297;-78
2022/01/15 11:31:33;;;;;;;12.25;3.05;;;;;;;3.30;55.72;100580.11;126175;1099;104325;-78
2022/01/15 11:34:10;;;;;;;11.47;3.60;;;;;;;3.27;55.58;100543.59;125499;1099;104325;-78
2022/01/15 11:36:43;;;;;;;13.10;3.30;;;;;;;3.24;55.17;100589.29;126141;1099;104277;-78
2022/01/15 11:39:19;;;;;;;9.80;3.50;;;;;;;3.23;56.21;100571.92;126203;1099;104191;-78
2022/01/15 11:41:53;;;;;;;10.73;3.90;;;;;;;3.23;55.69;100591.78;126296;1098;104252;-79
2022/01/15 11:44:41;;;;;;;11.13;3.60;;;;;;;3.17;56.07;100581.00;126302;1098;104175;-80
2022/01/15 11:47:21;;;;;;;8.93;3.20;;;;;;;3.14;56.35;100593.77;126348;1099;104195;-79
2022/01/15 11:49:53;;;;;;;10.60;3.05;;;;;;;3.10;56.58;100584.89;126274;1099;104287;-80
2022/01/15 11:52:44;;;;;;;11.10;3.80;;;;;;;3.08;56.68;100588.16;126153;1099;104185;-79
2022/01/15 11:55:21;;;;;;;7.07;3.20;;;;;;;3.06;56.59;100585.47;126252;1099;104732;-80
2022/01/15 11:58:03;;;;;;;13.80;3.70;;;;;;;3.05;56.09;100581.06;126235;1099;104159;-80